Time;durP1;ratioP1;P1;durP2;ratioP2;P2;SDS_P1;SDS_P2;PMS_P1;PMS_P2;Temp;Humidity;BMP_temperature;BMP_pressure;BME280_temperature;BME280_humidity;BME280_pressure;Samples;Min_cycle;Max_cycle;Signal;HPM_P1;HPM_P2
2022/05/15 00:02:28;;;;;;;20.67;7.38;;;;;;;13.65;69.01;102230.72;4915232;28;20672;-59
2022/05/15 00:04:53;;;;;;;22.08;7.47;;;;;;;13.61;69.52;102225.34;4903613;28;20072;-60
2022/05/15 00:07:19;;;;;;;20.75;7.22;;;;;;;13.67;69.33;102220.25;4903567;28;20142;-58
2022/05/15 00:09:44;;;;;;;20.27;6.43;;;;;;;13.69;69.23;102221.19;4917575;28;20157;-60
2022/05/15 00:12:10;;;;;;;20.13;7.03;;;;;;;13.67;69.10;102215.91;4918129;28;20180;-59
2022/05/15 00:14:36;;;;;;;23.13;7.72;;;;;;;13.62;69.57;102203.53;4920049;28;20071;-59
2022/05/15 00:17:03;;;;;;;21.85;7.40;;;;;;;13.64;69.42;102207.97;4903178;28;20055;-59
2022/05/15 00:19:28;;;;;;;25.45;8.93;;;;;;;13.63;70.01;102200.06;4907044;28;20054;-59
2022/05/15 00:21:53;;;;;;;27.80;7.88;;;;;;;13.68;70.57;102196.72;4917340;28;20050;-59
2022/05/15 00:24:20;;;;;;;25.95;8.05;;;;;;;13.75;70.56;102195.09;4918925;28;20071;-59
2022/05/15 00:26:45;;;;;;;21.30;8.05;;;;;;;13.79;70.35;102187.31;4900699;28;20046;-59
2022/05/15 00:29:11;;;;;;;24.38;7.57;;;;;;;13.79;70.32;102194.31;4923049;28;20051;-60
2022/05/15 00:31:37;;;;;;;21.67;7.40;;;;;;;13.79;70.26;102192.56;4916952;28;20024;-58
2022/05/15 00:34:03;;;;;;;24.17;8.60;;;;;;;13.75;70.31;102198.63;4911880;28;20051;-59
2022/05/15 00:36:29;;;;;;;27.48;8.55;;;;;;;13.78;70.63;102197.81;4911649;28;20435;-59
2022/05/15 00:38:54;;;;;;;23.00;7.93;;;;;;;13.80;70.26;102193.47;4911425;28;20051;-57
2022/05/15 00:41:20;;;;;;;21.10;7.65;;;;;;;13.76;70.31;102195.16;4923429;28;21017;-60
2022/05/15 00:43:50;;;;;;;23.92;7.97;;;;;;;13.72;70.40;102193.28;4915573;28;20054;-60
2022/05/15 00:46:20;;;;;;;25.80;8.00;;;;;;;13.75;70.79;102189.84;4915263;28;20043;-57
2022/05/15 00:48:46;;;;;;;22.13;8.00;;;;;;;13.75;70.63;102185.50;4909986;28;20594;-59
2022/05/15 00:51:19;;;;;;;20.27;7.20;;;;;;;13.73;70.40;102195.06;4913486;28;20047;-59
2022/05/15 00:53:49;;;;;;;22.08;7.57;;;;;;;13.73;71.05;102200.31;4921249;28;20146;-58
2022/05/15 00:56:17;;;;;;;26.92;8.32;;;;;;;13.66;70.61;102197.53;4918664;28;20078;-59
2022/05/15 00:58:50;;;;;;;19.73;7.65;;;;;;;13.63;70.79;102195.72;4913598;28;20047;-59
2022/05/15 01:01:17;;;;;;;24.23;7.57;;;;;;;13.58;70.58;102197.38;4932465;28;20047;-57
2022/05/15 01:03:44;;;;;;;22.30;8.00;;;;;;;13.53;70.57;102190.25;4907297;28;20035;-59
2022/05/15 01:06:10;;;;;;;17.73;6.88;;;;;;;13.48;70.63;102198.00;4916224;28;20047;-58
2022/05/15 01:08:39;;;;;;;21.55;7.28;;;;;;;13.45;70.85;102197.94;4919831;28;20479;-59
2022/05/15 01:11:10;;;;;;;24.08;7.75;;;;;;;13.47;71.08;102195.38;4915633;28;20051;-59
2022/05/15 01:13:38;;;;;;;17.48;6.95;;;;;;;13.44;70.73;102188.31;4918379;28;20047;-59
2022/05/15 01:16:05;;;;;;;19.35;7.00;;;;;;;13.40;71.07;102195.22;4917107;28;20047;-57
2022/05/15 01:18:33;;;;;;;23.45;7.65;;;;;;;13.37;71.43;102195.13;4913761;28;20440;-58
2022/05/15 01:21:17;;;;;;;23.83;7.97;;;;;;;13.37;71.52;102194.25;4908403;28;21325;-59
2022/05/15 01:23:42;;;;;;;21.00;7.38;;;;;;;13.39;71.01;102193.44;4917756;28;20399;-58
2022/05/15 01:26:07;;;;;;;24.45;7.90;;;;;;;13.43;71.56;102188.25;4916244;28;20066;-59
2022/05/15 01:28:33;;;;;;;24.63;7.50;;;;;;;13.43;71.46;102190.88;4911450;28;20288;-59
2022/05/15 01:30:58;;;;;;;20.67;7.65;;;;;;;13.44;70.95;102192.66;4905184;28;20139;-59
2022/05/15 01:33:24;;;;;;;21.65;7.72;;;;;;;13.42;71.60;102190.00;4915300;28;20597;-59
2022/05/15 01:35:49;;;;;;;26.38;8.32;;;;;;;13.40;72.01;102189.97;4920319;28;20044;-58
2022/05/15 01:38:15;;;;;;;23.13;7.90;;;;;;;13.42;70.98;102187.38;4920145;28;20047;-59
2022/05/15 01:40:41;;;;;;;24.73;7.68;;;;;;;13.45;71.65;102183.94;4908333;28;20110;-63
2022/05/15 01:43:07;;;;;;;23.23;7.95;;;;;;;13.47;71.14;102183.16;4916213;28;20511;-59
2022/05/15 01:45:34;;;;;;;28.20;7.55;;;;;;;13.49;71.49;102188.41;4908446;28;20067;-59
2022/05/15 01:47:59;;;;;;;27.67;7.93;;;;;;;13.48;71.05;102179.66;4914834;28;20050;-59
2022/05/15 01:50:25;;;;;;;26.50;7.80;;;;;;;13.45;71.05;102178.72;4920314;28;20272;-58
2022/05/15 01:52:51;;;;;;;25.27;8.25;;;;;;;13.45;70.90;102176.97;4907540;28;20042;-60
2022/05/15 01:55:17;;;;;;;19.50;7.38;;;;;;;13.47;70.66;102177.91;4916568;28;20451;-58
2022/05/15 01:57:43;;;;;;;21.85;6.95;;;;;;;13.42;70.68;102174.28;4913108;28;20043;-59
2022/05/15 02:00:12;;;;;;;20.45;7.45;;;;;;;13.40;70.55;102166.41;4916369;28;20507;-58
2022/05/15 02:02:39;;;;;;;25.15;7.68;;;;;;;13.44;70.83;102164.72;4915396;28;20122;-57
2022/05/15 02:05:05;;;;;;;22.55;7.40;;;;;;;13.49;70.66;102177.91;4906768;28;21490;-58
2022/05/15 02:07:30;;;;;;;28.15;7.30;;;;;;;13.48;70.54;102181.41;4918615;28;20051;-58
2022/05/15 02:09:56;;;;;;;20.73;7.32;;;;;;;13.51;70.27;102176.22;4913947;28;20052;-59
2022/05/15 02:12:21;;;;;;;25.65;7.75;;;;;;;13.48;70.01;102177.03;4908172;28;20158;-57
2022/05/15 02:14:46;;;;;;;22.33;7.03;;;;;;;13.51;70.04;102171.88;4910007;28;20126;-58
2022/05/15 02:17:11;;;;;;;21.58;7.18;;;;;;;13.52;69.46;102178.00;4917917;28;20109;-58
2022/05/15 02:19:37;;;;;;;26.08;7.63;;;;;;;13.51;69.50;102179.75;4912066;28;20756;-58
2022/05/15 02:22:02;;;;;;;22.90;7.35;;;;;;;13.46;69.44;102181.38;4917510;28;20159;-59
2022/05/15 02:24:28;;;;;;;25.40;7.38;;;;;;;13.46;69.43;102170.91;4923796;28;20086;-57
2022/05/15 02:26:53;;;;;;;24.88;7.30;;;;;;;13.46;69.37;102170.00;4910635;28;20518;-59
2022/05/15 02:29:19;;;;;;;20.23;6.90;;;;;;;13.42;69.05;102170.81;4910290;28;20570;-58
2022/05/15 02:31:44;;;;;;;21.48;6.93;;;;;;;13.33;69.25;102179.31;4919092;28;20525;-59
2022/05/15 02:34:09;;;;;;;24.65;7.38;;;;;;;13.31;69.59;102173.16;4920546;28;20047;-59
2022/05/15 02:36:36;;;;;;;26.25;7.35;;;;;;;13.34;69.47;102166.28;4923073;28;20054;-58
2022/05/15 02:39:01;;;;;;;25.30;7.18;;;;;;;13.33;69.30;102172.34;4914459;28;21797;-59
2022/05/15 02:41:27;;;;;;;28.10;7.20;;;;;;;13.33;68.99;102174.09;4921831;28;20043;-58
2022/05/15 02:43:52;;;;;;;23.60;6.65;;;;;;;13.31;68.83;102170.53;4919966;28;20035;-57
2022/05/15 02:46:17;;;;;;;25.48;7.20;;;;;;;13.28;69.24;102166.13;4920861;28;20051;-59
2022/05/15 02:51:27;;;;;;;22.67;6.90;;;;;;;13.29;68.87;102167.03;4920876;28;20054;-58
2022/05/15 02:53:52;;;;;;;24.05;7.40;;;;;;;13.23;69.18;102166.88;4922379;28;20046;-58
2022/05/15 02:56:21;;;;;;;22.85;6.60;;;;;;;13.20;69.06;102167.69;4914752;28;20463;-57
2022/05/15 02:58:46;;;;;;;28.00;7.35;;;;;;;13.12;69.38;102161.38;4906625;28;20059;-57
2022/05/15 03:01:13;;;;;;;29.77;7.28;;;;;;;13.12;69.18;102163.06;4917489;28;20055;-60
2022/05/15 03:03:39;;;;;;;22.00;6.72;;;;;;;13.08;69.19;102164.75;4913984;28;20850;-58
2022/05/15 03:06:05;;;;;;;23.48;6.88;;;;;;;13.01;69.20;102166.31;4921745;28;20048;-58
2022/05/15 03:08:38;;;;;;;25.73;7.30;;;;;;;12.91;69.24;102164.34;4904227;28;20044;-58
2022/05/15 03:11:04;;;;;;;20.83;6.63;;;;;;;12.92;69.34;102154.75;4905199;28;20070;-58
2022/05/15 03:13:30;;;;;;;23.05;6.95;;;;;;;12.85;69.77;102155.47;4905014;28;20047;-59
2022/05/15 03:15:56;;;;;;;22.98;7.20;;;;;;;12.78;69.93;102154.41;4914348;28;20113;-58
2022/05/15 03:18:21;;;;;;;18.35;6.60;;;;;;;12.76;69.98;102147.38;4919436;28;20051;-59
2022/05/15 03:20:46;;;;;;;26.33;7.55;;;;;;;12.73;70.03;102147.31;4912204;28;20053;-57
2022/05/15 03:23:13;;;;;;;23.98;6.88;;;;;;;12.74;70.62;102142.13;4922330;28;20702;-59
2022/05/15 03:25:38;;;;;;;25.05;7.50;;;;;;;12.80;70.21;102147.50;4921166;28;20105;-58
2022/05/15 03:28:09;;;;;;;30.73;7.57;;;;;;;12.77;70.25;102139.56;4911288;28;20598;-58
2022/05/15 03:30:44;;;;;;;26.05;6.45;;;;;;;12.79;70.08;102140.50;4917695;28;20063;-58
2022/05/15 03:33:10;;;;;;;29.60;7.55;;;;;;;12.81;70.16;102135.28;4916271;28;20043;-58
2022/05/15 03:35:37;;;;;;;24.25;6.40;;;;;;;12.78;70.04;102133.47;4911826;28;20936;-58
2022/05/15 03:38:03;;;;;;;26.48;6.88;;;;;;;12.75;69.99;102136.00;4920510;28;20039;-59
2022/05/15 03:40:29;;;;;;;26.58;7.07;;;;;;;12.70;70.35;102124.56;4910504;28;20042;-58
2022/05/15 03:42:54;;;;;;;23.15;6.80;;;;;;;12.74;70.03;102123.81;4898121;28;20416;-59
2022/05/15 03:45:20;;;;;;;27.40;7.47;;;;;;;12.76;70.03;102124.69;4929410;28;20574;-58
2022/05/15 03:47:48;;;;;;;25.45;6.93;;;;;;;12.77;69.63;102136.94;4897517;28;20062;-60
2022/05/15 03:50:14;;;;;;;22.45;6.60;;;;;;;12.79;69.66;102137.00;4917828;28;20046;-58
2022/05/15 03:52:41;;;;;;;21.92;6.57;;;;;;;12.76;69.75;102135.16;4913666;28;20499;-58
2022/05/15 03:55:07;;;;;;;22.65;6.72;;;;;;;12.76;69.66;102131.66;4918127;28;20047;-60
2022/05/15 03:57:32;;;;;;;22.33;6.65;;;;;;;12.80;69.43;102126.56;4919246;28;20121;-59
2022/05/15 03:59:58;;;;;;;22.73;7.28;;;;;;;12.82;69.64;102131.81;4895143;28;20830;-58
2022/05/15 04:02:23;;;;;;;27.80;6.68;;;;;;;12.83;69.41;102133.59;4922682;28;20054;-58
2022/05/15 04:04:49;;;;;;;23.65;6.78;;;;;;;12.84;69.10;102130.13;4915796;28;20476;-57
2022/05/15 04:07:16;;;;;;;28.48;6.18;;;;;;;12.84;69.25;102127.50;4916600;28;20221;-58
2022/05/15 04:09:47;;;;;;;22.90;6.80;;;;;;;12.84;69.25;102136.25;4921925;28;20402;-59
2022/05/15 04:12:13;;;;;;;24.13;6.85;;;;;;;12.83;69.07;102130.97;4909116;28;20433;-58
2022/05/15 04:14:41;;;;;;;24.17;6.70;;;;;;;12.86;69.11;102126.72;4919232;28;20032;-59
2022/05/15 04:17:07;;;;;;;24.77;7.13;;;;;;;12.89;69.18;102132.00;4921183;28;20129;-58
2022/05/15 04:19:37;;;;;;;21.15;6.22;;;;;;;12.95;68.77;102129.53;4915935;28;20510;-58
2022/05/15 04:22:04;;;;;;;21.20;6.40;;;;;;;13.00;68.81;102133.13;4919898;28;20053;-59
2022/05/15 04:24:31;;;;;;;27.08;6.78;;;;;;;13.07;68.23;102128.94;4919115;28;20150;-59
2022/05/15 04:26:57;;;;;;;21.70;6.90;;;;;;;13.11;68.31;102132.53;4909750;28;20264;-59
2022/05/15 04:29:24;;;;;;;25.83;7.00;;;;;;;13.18;67.80;102132.72;4918153;28;20526;-59
2022/05/15 04:31:55;;;;;;;25.10;6.72;;;;;;;13.27;67.58;102138.16;4920305;28;20390;-59
2022/05/15 04:34:22;;;;;;;23.00;6.72;;;;;;;13.41;67.48;102143.72;4929162;28;20051;-58
2022/05/15 04:36:47;;;;;;;31.40;6.55;;;;;;;13.51;66.48;102145.69;4902843;28;20054;-59
2022/05/15 04:39:12;;;;;;;17.65;6.20;;;;;;;13.70;66.30;102137.34;4918616;28;20043;-59
2022/05/15 04:41:38;;;;;;;27.30;6.70;;;;;;;13.84;65.71;102134.13;4908575;28;21080;-58
2022/05/15 04:44:03;;;;;;;21.80;6.43;;;;;;;14.03;65.00;102133.63;4906362;28;20044;-58
2022/05/15 04:46:29;;;;;;;25.42;6.82;;;;;;;14.36;64.07;102130.75;4914485;28;20070;-58
2022/05/15 04:48:55;;;;;;;29.33;7.10;;;;;;;14.95;62.64;102127.41;4914060;28;20058;-58
2022/05/15 04:51:20;;;;;;;24.85;6.43;;;;;;;15.72;60.31;102126.75;4916984;28;20118;-58
2022/05/15 04:53:46;;;;;;;24.70;6.53;;;;;;;16.24;57.88;102120.31;4921778;28;20053;-58
2022/05/15 04:56:11;;;;;;;26.95;6.53;;;;;;;16.69;56.66;102122.53;4920990;28;20050;-59
2022/05/15 04:58:37;;;;;;;19.02;6.25;;;;;;;17.26;54.79;102126.44;4908249;28;20134;-58
2022/05/15 05:01:02;;;;;;;24.63;6.80;;;;;;;17.51;53.99;102122.16;4911669;28;23003;-60
2022/05/15 05:03:28;;;;;;;20.95;6.40;;;;;;;17.35;53.16;102118.56;4920168;28;20407;-58
2022/05/15 05:05:53;;;;;;;26.55;7.13;;;;;;;16.69;54.66;102121.63;4909228;28;20043;-60
2022/05/15 05:08:18;;;;;;;23.98;6.95;;;;;;;16.59;55.04;102120.63;4919565;28;20062;-57
2022/05/15 05:10:43;;;;;;;25.23;6.85;;;;;;;16.20;57.04;102127.31;4912359;28;20121;-60
2022/05/15 05:13:09;;;;;;;23.75;6.68;;;;;;;16.13;57.11;102127.22;4917407;28;20039;-59
2022/05/15 05:15:34;;;;;;;27.27;7.28;;;;;;;16.10;57.35;102121.94;4918945;28;20745;-58
2022/05/15 05:18:00;;;;;;;25.52;7.00;;;;;;;15.90;57.70;102120.81;4913255;28;20139;-58
2022/05/15 05:20:25;;;;;;;24.13;6.88;;;;;;;15.86;57.71;102119.03;4915517;28;20565;-59
2022/05/15 05:22:51;;;;;;;23.88;6.40;;;;;;;15.78;58.29;102130.34;4914286;28;20078;-58
2022/05/15 05:25:17;;;;;;;22.27;6.78;;;;;;;15.73;57.82;102128.53;4906209;28;20093;-57
2022/05/15 05:27:43;;;;;;;22.98;6.90;;;;;;;15.79;58.01;102123.34;4918637;28;20571;-57
2022/05/15 05:30:13;;;;;;;27.05;7.00;;;;;;;15.67;58.80;102124.09;4919090;28;20159;-58
2022/05/15 05:32:39;;;;;;;19.88;6.43;;;;;;;15.70;58.94;102120.59;4918467;28;20043;-58
2022/05/15 05:35:05;;;;;;;22.88;6.55;;;;;;;15.63;58.52;102116.13;4911393;28;20336;-57
2022/05/15 05:37:31;;;;;;;21.50;6.13;;;;;;;15.53;58.97;102115.13;4920811;28;20085;-58
2022/05/15 05:39:56;;;;;;;21.52;6.60;;;;;;;15.55;60.24;102118.66;4909863;28;21886;-58
2022/05/15 05:42:22;;;;;;;20.48;6.50;;;;;;;15.61;58.68;102124.00;4922226;28;20051;-58
2022/05/15 05:44:47;;;;;;;24.55;7.13;;;;;;;15.62;59.45;102128.38;4915404;28;20182;-57
2022/05/15 05:47:13;;;;;;;25.00;7.00;;;;;;;15.57;59.13;102123.91;4915671;28;20047;-57
2022/05/15 05:49:38;;;;;;;25.33;7.13;;;;;;;15.61;59.42;102123.13;4921070;28;20074;-58
2022/05/15 05:52:04;;;;;;;29.10;7.13;;;;;;;15.76;58.99;102133.81;4910870;28;20756;-58
2022/05/15 05:54:29;;;;;;;24.60;6.38;;;;;;;15.86;58.42;102124.31;4943001;28;20146;-59
2022/05/15 05:56:57;;;;;;;26.70;6.85;;;;;;;16.17;57.41;102136.91;4911440;28;20631;-57
2022/05/15 05:59:22;;;;;;;23.23;6.80;;;;;;;16.47;56.97;102125.78;4913075;28;20400;-58
2022/05/15 06:01:48;;;;;;;23.83;7.07;;;;;;;17.01;56.00;102131.56;4913190;28;20055;-58
2022/05/15 06:06:57;;;;;;;22.77;6.65;;;;;;;18.46;51.93;102129.50;4907841;28;20110;-57
2022/05/15 06:09:23;;;;;;;24.83;7.13;;;;;;;19.81;47.65;102124.91;4920158;28;20052;-57
2022/05/15 06:11:48;;;;;;;21.38;6.18;;;;;;;20.83;44.95;102131.28;4914922;28;20372;-58
2022/05/15 06:14:14;;;;;;;21.92;6.00;;;;;;;21.99;43.16;102136.22;4914459;28;20361;-60
2022/05/15 06:16:39;;;;;;;17.60;6.38;;;;;;;22.83;41.09;102127.84;4915211;28;20093;-58
2022/05/15 06:19:04;;;;;;;20.17;5.65;;;;;;;22.84;41.00;102125.16;4908531;28;20503;-59
2022/05/15 06:21:30;;;;;;;19.25;6.22;;;;;;;23.78;38.55;102127.78;4920694;28;20510;-57
2022/05/15 06:23:55;;;;;;;24.23;6.05;;;;;;;24.29;38.05;102128.41;4910591;28;21179;-58
2022/05/15 06:26:20;;;;;;;22.02;6.45;;;;;;;24.23;37.71;102131.22;4918123;28;20126;-58
2022/05/15 06:28:46;;;;;;;19.67;6.18;;;;;;;24.49;36.50;102130.63;4907724;28;20510;-59
2022/05/15 06:31:11;;;;;;;20.45;5.80;;;;;;;24.85;36.06;102128.81;4906278;28;20067;-59
2022/05/15 06:33:36;;;;;;;19.95;5.57;;;;;;;26.14;33.84;102131.38;4918710;28;20047;-58
2022/05/15 06:36:02;;;;;;;17.73;5.50;;;;;;;25.38;35.84;102124.72;4932019;28;20063;-59
2022/05/15 06:38:27;;;;;;;16.95;5.55;;;;;;;25.53;34.83;102121.63;4902266;28;20042;-59
2022/05/15 06:40:53;;;;;;;17.58;6.05;;;;;;;25.97;34.72;102132.81;4911127;28;20035;-59
2022/05/15 06:43:18;;;;;;;17.70;5.78;;;;;;;26.16;32.76;102125.97;4909499;28;20111;-59
2022/05/15 06:45:44;;;;;;;19.63;6.60;;;;;;;24.75;36.09;102127.31;4918365;28;20047;-58
2022/05/15 06:48:09;;;;;;;17.88;6.18;;;;;;;24.82;37.56;102123.56;4912517;28;20189;-57
2022/05/15 06:50:35;;;;;;;20.85;6.10;;;;;;;25.05;36.24;102126.53;4916586;28;20050;-58
2022/05/15 06:53:01;;;;;;;19.90;6.07;;;;;;;25.08;37.02;102123.75;4911875;28;20935;-58
2022/05/15 06:55:27;;;;;;;19.67;5.95;;;;;;;25.06;37.21;102120.28;4917159;28;20043;-59
2022/05/15 06:57:52;;;;;;;26.50;6.05;;;;;;;25.15;36.64;102119.13;4917596;28;20047;-59
2022/05/15 07:00:21;;;;;;;18.23;5.78;;;;;;;24.78;37.52;102113.88;4915013;28;20220;-58
2022/05/15 07:02:48;;;;;;;19.23;6.20;;;;;;;25.52;35.34;102119.84;4910883;28;20031;-59
2022/05/15 07:05:20;;;;;;;17.20;5.82;;;;;;;25.79;35.01;102113.75;4913461;28;20090;-59
2022/05/15 07:07:46;;;;;;;18.08;6.13;;;;;;;25.58;35.48;102116.16;4912785;28;20057;-59
2022/05/15 07:10:12;;;;;;;16.92;6.25;;;;;;;25.30;36.17;102113.41;4912924;28;20093;-59
2022/05/15 07:12:38;;;;;;;18.83;6.20;;;;;;;25.35;35.77;102115.00;4908891;28;20094;-59
2022/05/15 07:15:04;;;;;;;18.45;6.38;;;;;;;25.37;36.11;102113.16;4907433;28;20040;-57
2022/05/15 07:17:30;;;;;;;21.88;6.60;;;;;;;24.69;37.14;102117.66;4926475;28;20047;-58
2022/05/15 07:19:56;;;;;;;19.65;6.53;;;;;;;25.01;36.67;102116.84;4920882;28;20055;-59
2022/05/15 07:22:21;;;;;;;20.42;6.55;;;;;;;25.38;35.04;102124.72;4924618;28;20169;-58
2022/05/15 07:24:47;;;;;;;19.70;6.43;;;;;;;25.43;36.09;102123.66;4931003;28;20510;-58
2022/05/15 07:27:14;;;;;;;18.73;6.60;;;;;;;25.63;35.14;102123.13;4923398;28;20055;-57
2022/05/15 07:29:40;;;;;;;20.30;6.45;;;;;;;25.61;37.83;102129.44;4910039;28;20699;-57
2022/05/15 07:32:07;;;;;;;21.67;6.68;;;;;;;25.79;35.71;102129.78;4917799;28;20043;-58
2022/05/15 07:34:33;;;;;;;18.83;6.47;;;;;;;26.15;35.87;102122.44;4902952;28;20046;-59
2022/05/15 07:36:58;;;;;;;21.80;6.72;;;;;;;26.06;35.73;102119.16;4909303;28;20038;-58
2022/05/15 07:39:24;;;;;;;18.20;6.60;;;;;;;25.74;36.71;102123.66;4916372;28;20146;-58
2022/05/15 07:41:50;;;;;;;20.05;6.70;;;;;;;26.22;35.13;102115.97;4910044;28;20472;-59
2022/05/15 07:44:16;;;;;;;17.05;6.75;;;;;;;26.60;34.56;102111.16;4916049;28;20059;-59
2022/05/15 07:46:42;;;;;;;23.70;7.38;;;;;;;26.43;34.03;102108.19;4912079;28;20042;-58
2022/05/15 07:49:08;;;;;;;18.10;6.70;;;;;;;26.40;35.79;102102.94;4904247;28;20047;-58
2022/05/15 07:51:34;;;;;;;19.90;6.57;;;;;;;26.88;33.73;102103.09;4918473;28;20031;-58
2022/05/15 07:54:00;;;;;;;20.17;7.20;;;;;;;27.32;33.44;102099.72;4920476;28;20546;-59
2022/05/15 07:56:25;;;;;;;18.17;6.90;;;;;;;27.78;33.16;102112.28;4918603;28;20055;-59
2022/05/15 07:58:52;;;;;;;22.77;6.30;;;;;;;28.02;32.67;102104.19;4909157;28;20534;-58
2022/05/15 08:01:18;;;;;;;19.00;7.20;;;;;;;27.07;33.81;102101.53;4899932;28;20055;-57
2022/05/15 08:03:44;;;;;;;19.95;6.40;;;;;;;27.15;35.68;102106.59;4897499;28;20044;-57
2022/05/15 08:08:56;;;;;;;17.42;6.68;;;;;;;27.11;34.27;102099.63;4896944;28;20461;-57
2022/05/15 08:11:28;;;;;;;18.10;6.60;;;;;;;27.30;33.74;102088.19;4886456;28;20087;-58
2022/05/15 08:14:00;;;;;;;20.02;6.95;;;;;;;26.31;35.45;102089.88;4901793;28;20054;-59
2022/05/15 08:16:25;;;;;;;18.58;7.00;;;;;;;26.13;36.32;102088.63;4896481;28;20063;-57
2022/05/15 08:24:19;;;;;;;20.85;7.18;;;;;;;26.20;35.62;102072.34;4899214;28;20681;-58
2022/05/15 08:26:51;;;;;;;19.35;7.97;;;;;;;25.69;36.64;102080.19;4896987;28;20031;-57
2022/05/15 08:29:18;;;;;;;15.88;7.28;;;;;;;25.49;36.53;102071.91;4892878;28;20044;-61
2022/05/15 08:31:44;;;;;;;18.38;7.60;;;;;;;24.81;38.95;102066.69;4895448;28;20083;-58
2022/05/15 08:34:10;;;;;;;21.77;8.20;;;;;;;24.82;38.85;102067.56;4900098;28;20456;-58
2022/05/15 08:36:39;;;;;;;19.92;7.72;;;;;;;24.34;41.37;102056.34;4899834;28;20051;-59
2022/05/15 08:39:04;;;;;;;19.95;8.00;;;;;;;24.01;41.28;102058.91;4902866;28;20287;-57
2022/05/15 08:41:30;;;;;;;19.80;7.57;;;;;;;24.27;39.16;102055.66;4892744;28;20047;-58
2022/05/15 08:44:08;;;;;;;20.83;8.13;;;;;;;24.10;41.16;102058.66;4898331;28;20162;-59
2022/05/15 08:46:48;;;;;;;20.40;7.65;;;;;;;24.35;41.06;102042.97;4883665;28;20639;-58
2022/05/15 08:49:40;;;;;;;20.73;8.15;;;;;;;24.30;41.00;102058.22;4896727;28;20415;-60
2022/05/15 08:52:15;;;;;;;21.38;8.60;;;;;;;24.58;40.37;102066.38;4893131;28;20064;-60
2022/05/15 08:55:03;;;;;;;21.05;7.75;;;;;;;24.71;41.38;102066.94;4897080;29;20142;-56
2022/05/15 08:57:55;;;;;;;23.58;10.65;;;;;;;24.72;39.72;102066.91;4891935;28;20119;-60
2022/05/15 09:00:31;;;;;;;18.80;8.75;;;;;;;24.96;38.87;102062.72;4908434;28;20094;-57
2022/05/15 09:03:11;;;;;;;21.10;9.50;;;;;;;24.99;37.54;102055.53;4897399;28;20190;-57
2022/05/15 09:05:37;;;;;;;24.45;9.93;;;;;;;25.03;38.72;102056.31;4889474;28;20552;-60
2022/05/15 09:08:26;;;;;;;22.15;9.05;;;;;;;24.84;39.78;102047.91;4900423;28;20039;-57
2022/05/15 09:11:04;;;;;;;22.05;9.18;;;;;;;24.75;38.78;102041.97;4895662;28;20048;-58
2022/05/15 09:13:30;;;;;;;21.25;9.23;;;;;;;24.45;39.47;102041.84;4894920;28;20523;-58
2022/05/15 09:15:58;;;;;;;24.23;9.45;;;;;;;24.56;39.54;102036.22;4895624;28;20097;-58
2022/05/15 09:18:24;;;;;;;19.38;8.95;;;;;;;24.69;38.81;102040.34;4884681;28;20560;-58
2022/05/15 09:20:52;;;;;;;18.60;8.20;;;;;;;25.08;39.66;102033.03;4895923;28;20043;-58
2022/05/15 09:23:27;;;;;;;21.75;9.05;;;;;;;25.35;39.62;102042.06;4882579;28;20465;-59
2022/05/15 09:25:58;;;;;;;21.30;8.75;;;;;;;25.32;39.24;102035.00;4896334;28;20114;-58
2022/05/15 09:28:27;;;;;;;21.42;8.73;;;;;;;25.20;38.56;102035.34;4894388;29;20404;-59
2022/05/15 09:30:54;;;;;;;18.15;8.30;;;;;;;25.25;37.79;102045.91;4894987;28;20051;-59
2022/05/15 09:33:30;;;;;;;20.83;8.75;;;;;;;25.11;38.69;102045.44;4880018;28;20036;-58
2022/05/15 09:36:20;;;;;;;23.75;9.07;;;;;;;24.92;39.33;102047.75;4895168;28;20060;-58
2022/05/15 09:38:47;;;;;;;17.40;8.70;;;;;;;24.98;38.64;102048.44;4899843;28;20403;-58
2022/05/15 09:44:10;;;;;;;16.67;7.72;;;;;;;25.51;37.82;102042.47;4895963;28;20046;-59
2022/05/15 09:46:40;;;;;;;21.40;9.95;;;;;;;25.34;37.41;102034.97;4900592;28;20044;-59
2022/05/15 09:49:30;;;;;;;18.70;9.07;;;;;;;25.39;38.37;102038.38;4914403;28;20155;-59
2022/05/15 09:51:58;;;;;;;18.88;9.25;;;;;;;25.45;35.41;102039.06;4898850;28;20563;-57
2022/05/15 09:54:33;;;;;;;18.85;8.32;;;;;;;25.64;36.72;102031.41;4896747;28;20099;-58
2022/05/15 09:57:16;;;;;;;18.67;8.93;;;;;;;25.75;35.82;102029.25;4898313;28;20054;-58
2022/05/15 09:59:50;;;;;;;19.07;8.07;;;;;;;25.74;35.62;102032.84;4907669;28;20047;-59
2022/05/15 10:02:17;;;;;;;;;;;;;;;25.84;36.63;102037.00;4912952;28;20292;-58
2022/05/15 10:04:47;;;;;;;16.38;7.78;;;;;;;26.01;34.27;102027.56;4921352;28;20373;-59
2022/05/15 10:07:33;;;;;;;20.67;9.30;;;;;;;25.99;35.35;102032.94;4909294;28;20039;-58
2022/05/15 10:10:15;;;;;;;17.58;8.30;;;;;;;26.19;36.36;102019.81;4923244;28;20051;-58
2022/05/15 10:12:43;;;;;;;15.57;7.57;;;;;;;26.28;34.39;102020.47;4908996;28;20047;-58
2022/05/15 10:15:09;;;;;;;17.77;7.70;;;;;;;26.22;33.30;102013.50;4914899;28;20239;-60
2022/05/15 10:17:46;;;;;;;18.73;8.68;;;;;;;26.05;33.94;102013.16;4907941;28;20464;-59
2022/05/15 10:20:25;;;;;;;20.50;8.25;;;;;;;26.32;34.58;102009.63;4934839;28;20066;-58
2022/05/15 10:23:16;;;;;;;19.02;7.95;;;;;;;26.20;34.55;102016.22;4912400;28;20103;-58
2022/05/15 10:25:48;;;;;;;18.85;8.48;;;;;;;26.14;35.34;102002.19;4919087;28;20102;-57
2022/05/15 10:28:42;;;;;;;20.67;8.05;;;;;;;26.24;33.89;102000.97;4912396;28;20031;-58
2022/05/15 10:31:21;;;;;;;16.67;7.50;;;;;;;26.28;32.99;101999.97;4927235;28;20425;-59
2022/05/15 10:33:50;;;;;;;16.92;7.60;;;;;;;26.63;34.64;102004.97;4918559;28;20051;-58
2022/05/15 10:36:27;;;;;;;25.02;9.45;;;;;;;26.57;32.17;101999.81;4922358;28;20031;-59
2022/05/15 10:39:03;;;;;;;18.23;8.70;;;;;;;26.44;33.85;102000.28;4917916;28;20049;-58
2022/05/15 10:41:57;;;;;;;16.52;8.43;;;;;;;26.08;33.65;102002.38;4910731;28;20521;-59
2022/05/15 10:44:53;;;;;;;21.55;8.13;;;;;;;26.26;31.67;102007.16;4923463;28;20054;-58
2022/05/15 10:47:23;;;;;;;17.23;8.23;;;;;;;26.36;31.80;101997.00;4904293;28;20103;-59
2022/05/15 10:50:24;;;;;;;17.40;7.63;;;;;;;26.60;31.41;101994.34;4906366;28;20041;-57
2022/05/15 10:57:21;;;;;;;16.75;7.68;;;;;;;26.65;31.67;101994.22;4909584;28;20035;-58
2022/05/15 10:59:09;;;;;;;13.40;6.88;;;;;;;26.62;32.33;101980.94;4916125;28;20066;-56
2022/05/15 11:02:03;;;;;;;21.38;8.98;;;;;;;26.67;31.98;101976.28;4919216;28;20469;-57
2022/05/15 11:04:54;;;;;;;18.85;8.35;;;;;;;26.82;32.01;101981.09;4922899;28;20118;-58
2022/05/15 11:07:32;;;;;;;18.65;7.00;;;;;;;27.11;33.08;101980.03;4906691;28;20044;-60
2022/05/15 11:10:07;;;;;;;18.00;6.15;;;;;;;27.16;31.14;101972.69;4924904;28;20266;-59
2022/05/15 11:12:58;;;;;;;16.10;6.38;;;;;;;27.21;29.54;101968.03;4920085;28;20077;-58
2022/05/15 11:15:36;;;;;;;16.70;7.00;;;;;;;27.06;28.69;101963.28;4907772;28;20578;-58
2022/05/15 11:18:10;;;;;;;14.70;5.93;;;;;;;26.97;30.63;101959.13;4924865;28;20127;-58
2022/05/15 11:20:41;;;;;;;13.52;5.45;;;;;;;27.25;31.17;101968.78;4918257;28;20057;-60
2022/05/15 11:23:27;;;;;;;13.75;6.80;;;;;;;27.04;30.02;101966.00;4915978;28;20040;-58
2022/05/15 11:25:59;;;;;;;15.70;7.57;;;;;;;26.80;30.36;101956.19;4919397;28;20195;-57
2022/05/15 11:28:38;;;;;;;17.45;8.00;;;;;;;27.02;31.06;101941.09;4922272;28;20035;-57
2022/05/15 11:31:09;;;;;;;14.63;6.95;;;;;;;26.70;29.03;101944.09;4926390;28;20444;-58
2022/05/15 11:33:43;;;;;;;20.95;7.13;;;;;;;27.03;33.29;101950.00;4916631;28;20141;-58
2022/05/15 11:36:21;;;;;;;17.73;7.70;;;;;;;26.75;30.41;101946.56;4913646;28;20130;-59
2022/05/15 11:38:48;;;;;;;19.60;7.20;;;;;;;26.74;31.52;101942.16;4924288;28;20123;-59
2022/05/15 11:41:32;;;;;;;15.48;6.50;;;;;;;26.64;31.20;101936.28;4916536;28;20495;-57
2022/05/15 11:43:59;;;;;;;17.48;6.43;;;;;;;26.62;31.40;101935.44;4922505;28;20130;-59
2022/05/15 11:46:46;;;;;;;16.90;6.60;;;;;;;26.84;29.08;101916.78;4917011;28;20055;-56